Time;durP1;ratioP1;P1;durP2;ratioP2;P2;SDS_P1;SDS_P2;PMS_P1;PMS_P2;Temp;Humidity;BMP_temperature;BMP_pressure;BME280_temperature;BME280_humidity;BME280_pressure;Samples;Min_cycle;Max_cycle;Signal;HPM_P1;HPM_P2
2021/12/26 00:01:04;;;;;;;6.37;1.10;;;;;;;-5.20;66.03;99237.02;1672805;83;21750;-50
2021/12/26 00:03:33;;;;;;;5.53;1.20;;;;;;;-5.24;66.07;99240.91;1672665;84;21687;-50
2021/12/26 00:06:06;;;;;;;9.00;1.97;;;;;;;-5.28;66.18;99241.77;1675802;84;21163;-50
2021/12/26 00:08:36;;;;;;;7.13;2.20;;;;;;;-5.31;66.11;99250.92;1677814;84;21037;-50
2021/12/26 00:11:03;;;;;;;5.63;1.50;;;;;;;-5.37;66.07;99248.72;1676762;84;21152;-50
2021/12/26 00:13:30;;;;;;;6.80;1.73;;;;;;;-5.43;66.12;99250.39;1673534;84;21074;-50
2021/12/26 00:15:58;;;;;;;6.60;1.67;;;;;;;-5.47;66.20;99256.06;1681913;84;21109;-50
2021/12/26 00:18:25;;;;;;;5.53;1.50;;;;;;;-5.54;66.21;99255.58;1679025;84;21144;-51
2021/12/26 00:20:52;;;;;;;7.33;1.10;;;;;;;-5.58;66.33;99252.90;1676940;84;21471;-50
2021/12/26 00:23:18;;;;;;;5.20;1.07;;;;;;;-5.62;66.45;99252.02;1675378;84;21152;-50
2021/12/26 00:25:45;;;;;;;5.93;0.90;;;;;;;-5.67;66.56;99248.45;1675049;84;21089;-51
2021/12/26 00:28:12;;;;;;;4.13;0.90;;;;;;;-5.71;66.70;99257.19;1672836;84;21089;-51
2021/12/26 00:30:38;;;;;;;1.67;0.67;;;;;;;-5.73;66.84;99258.91;1675541;84;21458;-50
2021/12/26 00:33:04;;;;;;;2.00;0.90;;;;;;;-5.75;66.94;99257.58;1675573;84;21153;-51
2021/12/26 00:35:33;;;;;;;3.00;0.80;;;;;;;-5.76;67.02;99252.31;1682341;84;21101;-50
2021/12/26 00:38:00;;;;;;;3.03;0.80;;;;;;;-5.76;67.13;99252.31;1684464;84;21061;-51
2021/12/26 00:40:28;;;;;;;2.63;0.80;;;;;;;-5.75;67.25;99258.00;1677068;84;21085;-50
2021/12/26 00:42:54;;;;;;;2.53;0.77;;;;;;;-5.76;67.04;99255.81;1676542;84;21811;-51
2021/12/26 00:45:20;;;;;;;3.50;1.40;;;;;;;-5.80;66.94;99259.30;1672986;84;21633;-52
2021/12/26 00:47:47;;;;;;;5.73;1.27;;;;;;;-5.82;66.94;99270.19;1676347;84;21090;-51
2021/12/26 00:50:18;;;;;;;4.33;0.90;;;;;;;-5.88;67.04;99272.80;1677356;84;21101;-50
2021/12/26 00:52:44;;;;;;;4.57;1.30;;;;;;;-5.91;67.01;99276.69;1670254;84;21077;-50
2021/12/26 00:55:11;;;;;;;5.00;1.03;;;;;;;-5.95;67.07;99268.76;1672742;84;21114;-51
2021/12/26 00:57:38;;;;;;;3.73;1.10;;;;;;;-5.98;67.22;99267.44;1674512;84;21118;-50
2021/12/26 01:00:08;;;;;;;5.90;1.57;;;;;;;-6.01;67.40;99269.59;1678856;83;20931;-50
2021/12/26 01:02:35;;;;;;;2.30;1.00;;;;;;;-6.01;67.51;99272.21;1673759;83;20939;-50
2021/12/26 01:05:04;;;;;;;4.20;1.30;;;;;;;-6.00;67.54;99273.97;1691824;82;20958;-50
2021/12/26 01:07:44;;;;;;;4.53;1.30;;;;;;;-5.99;67.37;99272.23;1680627;83;20947;-50
2021/12/26 01:10:00;;;;;;;4.33;1.10;;;;;;;-6.03;67.40;99270.42;1691092;82;21404;-50
2021/12/26 01:12:27;;;;;;;5.07;1.47;;;;;;;-6.06;67.54;99259.51;1658544;84;22110;-50
2021/12/26 01:14:59;;;;;;;1.50;0.80;;;;;;;-6.07;67.36;99263.42;1687190;82;21424;-51
2021/12/26 01:17:35;;;;;;;3.07;0.77;;;;;;;-6.11;67.43;99258.56;1678967;83;21360;-50
2021/12/26 01:20:07;;;;;;;3.23;0.97;;;;;;;-6.13;67.46;99251.15;1659654;83;21167;-49
2021/12/26 01:22:34;;;;;;;5.33;0.80;;;;;;;-6.17;67.36;99251.53;1689386;82;21337;-51
2021/12/26 01:25:02;;;;;;;4.73;0.77;;;;;;;-6.20;67.30;99251.92;1666552;83;20933;-50
2021/12/26 01:27:29;;;;;;;2.83;0.80;;;;;;;-6.26;67.52;99252.75;1656340;83;20939;-49
2021/12/26 01:29:55;;;;;;;3.30;0.80;;;;;;;-6.29;67.51;99258.37;1674074;83;21088;-51
2021/12/26 01:32:22;;;;;;;1.67;0.63;;;;;;;-6.34;67.35;99251.78;1681148;82;21146;-49
2021/12/26 01:34:54;;;;;;;2.77;0.70;;;;;;;-6.38;67.28;99252.59;1676688;83;21515;-50
2021/12/26 01:37:22;;;;;;;4.27;0.90;;;;;;;-6.42;67.34;99252.14;1682624;82;21124;-52
2021/12/26 01:40:07;;;;;;;3.40;0.80;;;;;;;-6.43;67.38;99260.84;1624672;86;21225;-51
2021/12/26 01:42:44;;;;;;;3.13;0.97;;;;;;;-6.45;67.42;99269.53;1653653;83;21570;-50
2021/12/26 01:45:15;;;;;;;2.33;1.20;;;;;;;-6.47;67.63;99272.59;1672419;83;21884;-51
2021/12/26 01:47:46;;;;;;;1.50;0.60;;;;;;;-6.48;67.89;99273.02;1681455;82;21060;-50
2021/12/26 01:50:13;;;;;;;1.33;0.60;;;;;;;-6.47;68.02;99280.02;1673557;83;21145;-51
2021/12/26 01:52:41;;;;;;;2.33;1.07;;;;;;;-6.48;68.07;99272.14;1664671;82;21486;-50
2021/12/26 01:55:23;;;;;;;2.73;1.00;;;;;;;-6.52;67.63;99273.83;1673893;83;21060;-50
2021/12/26 01:57:41;;;;;;;2.50;0.70;;;;;;;-6.60;67.70;99280.29;1664093;83;21153;-49
2021/12/26 02:00:08;;;;;;;3.33;0.83;;;;;;;-6.62;67.97;99287.23;1671442;83;21070;-50
2021/12/26 02:02:47;;;;;;;3.60;0.90;;;;;;;-6.62;67.96;99287.23;1672307;83;21717;-50
2021/12/26 02:05:14;;;;;;;1.83;0.63;;;;;;;-6.62;67.92;99287.66;1640732;83;21065;-49
2021/12/26 02:07:41;;;;;;;3.17;0.90;;;;;;;-6.63;67.94;99281.55;1669087;83;21075;-49
2021/12/26 02:10:08;;;;;;;2.13;0.80;;;;;;;-6.62;68.11;99281.12;1673327;83;22321;-49
2021/12/26 02:12:35;;;;;;;2.37;0.70;;;;;;;-6.60;68.22;99280.72;1671376;83;21153;-53
2021/12/26 02:15:01;;;;;;;3.27;0.70;;;;;;;-6.58;68.34;99277.70;1669583;83;21129;-50
2021/12/26 02:17:36;;;;;;;2.07;0.90;;;;;;;-6.57;68.34;99278.15;1653898;84;21482;-50
2021/12/26 02:20:22;;;;;;;4.43;1.47;;;;;;;-6.58;68.24;99280.31;1710951;81;21488;-50
2021/12/26 02:22:56;;;;;;;2.37;0.70;;;;;;;-6.58;68.14;99279.00;1707961;81;21115;-51
2021/12/26 02:28:00;;;;;;;1.70;0.70;;;;;;;-6.58;68.20;99279.00;1711945;81;20959;-51
2021/12/26 02:30:26;;;;;;;3.50;0.80;;;;;;;-6.57;68.19;99275.53;1697650;82;21082;-50
2021/12/26 02:32:58;;;;;;;4.60;1.30;;;;;;;-6.58;68.22;99277.27;1693639;81;20970;-51
2021/12/26 02:35:23;;;;;;;5.53;1.00;;;;;;;-6.57;68.18;99274.22;1711160;81;21108;-50
2021/12/26 02:37:49;;;;;;;8.53;1.13;;;;;;;-6.59;68.24;99277.24;1713658;81;20927;-51
2021/12/26 02:40:16;;;;;;;5.20;1.20;;;;;;;-6.61;68.40;99278.53;1711244;81;21055;-51
2021/12/26 02:42:43;;;;;;;5.93;1.60;;;;;;;-6.61;68.50;99276.34;1696110;81;21758;-49
2021/12/26 02:45:09;;;;;;;4.00;1.20;;;;;;;-6.60;68.56;99284.22;1715243;81;20912;-50
2021/12/26 02:47:45;;;;;;;5.07;1.50;;;;;;;-6.59;68.57;99281.17;1713988;81;21814;-50
2021/12/26 02:50:18;;;;;;;10.00;1.50;;;;;;;-6.59;68.58;99287.28;1712741;81;21153;-50
2021/12/26 02:52:45;;;;;;;6.60;1.40;;;;;;;-6.59;68.67;99290.33;1705063;81;21108;-50
2021/12/26 02:55:13;;;;;;;4.40;1.23;;;;;;;-6.58;68.64;99295.59;1707377;81;21097;-49
2021/12/26 02:57:40;;;;;;;5.40;1.10;;;;;;;-6.59;68.56;99301.69;1713308;81;20927;-50
2021/12/26 03:00:13;;;;;;;6.17;1.50;;;;;;;-6.58;68.33;99301.26;1712879;80;21096;-49
2021/12/26 03:02:44;;;;;;;4.80;1.57;;;;;;;-6.59;68.48;99302.11;1718305;80;21030;-49
2021/12/26 03:05:10;;;;;;;9.77;1.70;;;;;;;-6.62;68.42;99295.52;1717202;80;21049;-50
2021/12/26 03:07:37;;;;;;;5.93;1.57;;;;;;;-6.64;68.52;99302.06;1715639;80;21065;-50
2021/12/26 03:10:05;;;;;;;7.93;2.03;;;;;;;-6.66;68.59;99307.70;1717878;80;20987;-49
2021/12/26 03:12:33;;;;;;;9.63;2.27;;;;;;;-6.67;68.64;99314.22;1716573;80;20903;-51
2021/12/26 03:15:00;;;;;;;6.40;1.40;;;;;;;-6.69;68.67;99314.63;1681187;82;21061;-48
2021/12/26 03:17:28;;;;;;;7.47;1.90;;;;;;;-6.70;68.73;99319.41;1716818;80;21109;-50
2021/12/26 03:19:54;;;;;;;7.30;1.93;;;;;;;-6.71;68.70;99314.59;1715779;80;21084;-48
2021/12/26 03:22:25;;;;;;;5.57;1.63;;;;;;;-6.73;68.71;99312.84;1714292;80;21111;-51
2021/12/26 03:24:52;;;;;;;9.43;1.47;;;;;;;-6.75;68.78;99318.05;1727932;80;21191;-50
2021/12/26 03:27:19;;;;;;;5.07;1.27;;;;;;;-6.75;68.72;99323.28;1715591;80;21080;-51
2021/12/26 03:29:45;;;;;;;4.40;1.50;;;;;;;-6.76;68.52;99323.27;1717473;80;21042;-48
2021/12/26 03:32:13;;;;;;;6.57;1.83;;;;;;;-6.79;68.61;99321.47;1719839;80;21481;-50
2021/12/26 03:34:47;;;;;;;6.73;1.43;;;;;;;-6.80;68.65;99326.71;1719909;80;21378;-49
2021/12/26 03:37:13;;;;;;;3.97;1.30;;;;;;;-6.82;68.68;99326.69;1713344;81;21313;-50
2021/12/26 03:39:40;;;;;;;5.83;1.27;;;;;;;-6.82;68.62;99324.06;1719146;80;20954;-48
2021/12/26 03:42:07;;;;;;;3.73;1.00;;;;;;;-6.83;68.62;99321.42;1722971;80;21012;-51
2021/12/26 03:44:35;;;;;;;6.20;1.30;;;;;;;-6.85;68.62;99326.62;1720830;81;20911;-51
2021/12/26 03:47:03;;;;;;;6.97;1.67;;;;;;;-6.87;68.61;99323.98;1717681;80;20927;-51
2021/12/26 03:49:30;;;;;;;4.37;1.60;;;;;;;-6.88;68.68;99327.45;1716869;80;21044;-48
2021/12/26 03:51:57;;;;;;;3.67;1.33;;;;;;;-6.90;68.70;99326.58;1721884;80;21040;-51
2021/12/26 03:54:23;;;;;;;4.63;1.27;;;;;;;-6.91;68.64;99324.81;1720858;80;20895;-52
2021/12/26 03:56:51;;;;;;;5.27;1.20;;;;;;;-6.93;68.66;99330.45;1720829;80;20967;-49
2021/12/26 03:59:20;;;;;;;5.47;1.47;;;;;;;-6.95;68.74;99341.31;1720811;80;21322;-49
2021/12/26 04:01:46;;;;;;;3.50;1.00;;;;;;;-6.96;68.66;99348.70;1723113;80;21630;-49
2021/12/26 04:04:13;;;;;;;2.80;1.10;;;;;;;-6.97;68.65;99347.38;1726159;80;20919;-50
2021/12/26 04:06:41;;;;;;;5.43;1.20;;;;;;;-7.00;68.77;99350.84;1723590;80;20922;-50
2021/12/26 04:09:08;;;;;;;5.77;1.20;;;;;;;-7.00;68.89;99354.77;1726167;80;20883;-48
2021/12/26 04:11:36;;;;;;;5.23;1.40;;;;;;;-7.00;68.95;99352.16;1727512;80;21365;-48
2021/12/26 04:14:03;;;;;;;5.40;1.10;;;;;;;-6.99;68.89;99359.15;1724683;80;21098;-49
2021/12/26 04:16:30;;;;;;;5.17;1.30;;;;;;;-7.00;68.99;99352.16;1725560;80;21085;-50
2021/12/26 04:18:57;;;;;;;5.93;1.20;;;;;;;-7.00;68.96;99354.77;1725257;80;20926;-49
2021/12/26 04:21:24;;;;;;;8.47;1.70;;;;;;;-7.01;69.07;99353.00;1727672;80;20910;-48
2021/12/26 04:23:53;;;;;;;9.40;1.60;;;;;;;-7.01;69.13;99359.97;1669136;83;21069;-48
2021/12/26 04:26:19;;;;;;;4.47;1.23;;;;;;;-7.00;69.21;99360.43;1727651;80;21211;-51
2021/12/26 04:28:45;;;;;;;5.00;1.90;;;;;;;-6.99;69.15;99359.15;1727372;80;21291;-50
2021/12/26 04:31:12;;;;;;;6.53;1.40;;;;;;;-6.99;69.11;99367.00;1703014;82;21108;-51
2021/12/26 04:33:39;;;;;;;6.03;1.30;;;;;;;-7.00;69.16;99366.97;1719300;80;21069;-49
2021/12/26 04:36:07;;;;;;;4.87;1.70;;;;;;;-7.01;69.12;99361.28;1721443;80;21453;-49
2021/12/26 04:38:35;;;;;;;10.90;1.83;;;;;;;-7.00;69.04;99363.05;1722873;80;21136;-51
2021/12/26 04:41:04;;;;;;;4.23;1.20;;;;;;;-7.02;69.09;99357.78;1724208;80;21050;-51
2021/12/26 04:43:36;;;;;;;9.13;1.67;;;;;;;-7.04;69.15;99363.41;1717134;80;21038;-50
2021/12/26 04:46:05;;;;;;;6.40;1.50;;;;;;;-7.06;69.19;99367.73;1720331;80;21061;-49
2021/12/26 04:48:46;;;;;;;12.23;1.50;;;;;;;-7.06;69.32;99362.96;1720286;80;21672;-50
2021/12/26 04:51:13;;;;;;;8.57;1.60;;;;;;;-7.07;69.40;99359.89;1723877;80;21823;-49
2021/12/26 04:53:40;;;;;;;5.37;1.30;;;;;;;-7.07;69.41;99366.00;1724705;80;20926;-50
2021/12/26 04:56:06;;;;;;;7.07;1.47;;;;;;;-7.08;69.48;99358.13;1726364;80;20958;-48
2021/12/26 04:58:33;;;;;;;4.03;1.17;;;;;;;-7.09;69.59;99362.48;1723781;80;20943;-51
2021/12/26 05:00:59;;;;;;;6.97;1.67;;;;;;;-7.09;69.67;99365.09;1719588;80;21041;-48
2021/12/26 05:05:53;;;;;;;5.37;1.40;;;;;;;-7.03;69.77;99364.30;1850295;75;24916;-51
2021/12/26 05:08:21;;;;;;;3.73;1.47;;;;;;;-7.08;69.81;99368.16;1808848;77;20922;-51
2021/12/26 05:10:48;;;;;;;6.90;1.53;;;;;;;-7.08;69.91;99375.13;1812724;77;21150;-50
2021/12/26 05:13:14;;;;;;;5.47;1.57;;;;;;;-7.08;69.94;99372.09;1810470;77;20981;-50
2021/12/26 05:15:40;;;;;;;5.60;1.33;;;;;;;-7.10;70.01;99375.52;1808865;77;21037;-50
2021/12/26 05:18:08;;;;;;;3.70;1.20;;;;;;;-7.11;70.04;99383.80;1808462;77;21076;-51
2021/12/26 05:20:34;;;;;;;7.33;1.60;;;;;;;-7.13;70.06;99385.50;1813519;77;21521;-51
2021/12/26 05:23:01;;;;;;;6.47;1.37;;;;;;;-7.15;70.17;99385.92;1746471;80;21821;-49
2021/12/26 05:25:28;;;;;;;7.07;2.17;;;;;;;-7.13;70.21;99389.42;1751204;79;21243;-50
2021/12/26 05:27:55;;;;;;;8.77;1.63;;;;;;;-7.16;70.23;99397.24;1762580;79;21276;-50
2021/12/26 05:30:23;;;;;;;5.17;1.27;;;;;;;-7.15;70.29;99388.55;1765206;79;21315;-51
2021/12/26 05:32:51;;;;;;;5.97;1.60;;;;;;;-7.16;70.28;99397.24;1762922;79;21673;-51
2021/12/26 05:35:18;;;;;;;5.97;1.30;;;;;;;-7.16;70.37;99400.28;1762852;79;21072;-48
2021/12/26 05:37:44;;;;;;;5.27;1.57;;;;;;;-7.17;70.40;99403.33;1738729;79;21050;-50
2021/12/26 05:40:12;;;;;;;3.87;1.60;;;;;;;-7.18;70.44;99400.25;1765640;79;21116;-50
2021/12/26 05:42:39;;;;;;;4.63;1.30;;;;;;;-7.16;70.52;99406.39;1770623;78;21071;-48
2021/12/26 05:45:08;;;;;;;7.13;1.30;;;;;;;-7.16;70.49;99406.39;1766435;78;21109;-50
2021/12/26 05:47:36;;;;;;;4.27;1.17;;;;;;;-7.14;70.46;99405.09;1776389;78;21083;-50
2021/12/26 05:50:06;;;;;;;7.40;2.03;;;;;;;-7.14;70.48;99403.35;1750808;78;21721;-48
2021/12/26 05:52:32;;;;;;;6.80;1.67;;;;;;;-7.12;70.48;99416.03;1772849;78;20906;-51
2021/12/26 05:55:08;;;;;;;3.50;1.05;;;;;;;-7.15;70.43;99408.16;1771004;78;21020;-51
2021/12/26 05:57:34;;;;;;;5.13;1.30;;;;;;;-7.16;70.49;99414.24;1761142;78;21104;-49
2021/12/26 06:00:01;;;;;;;6.07;1.40;;;;;;;-7.19;70.45;99410.68;1761248;78;21023;-50
2021/12/26 06:02:31;;;;;;;6.20;1.57;;;;;;;-7.22;70.47;99415.42;1758984;78;21115;-50
2021/12/26 06:04:58;;;;;;;6.50;1.87;;;;;;;-7.27;70.54;99410.13;1763549;78;20953;-48
2021/12/26 06:07:24;;;;;;;6.40;1.50;;;;;;;-7.30;70.58;99410.07;1768768;78;20933;-49
2021/12/26 06:09:51;;;;;;;8.10;1.80;;;;;;;-7.28;70.67;99415.33;1762201;78;21095;-50
2021/12/26 06:12:18;;;;;;;6.20;1.43;;;;;;;-7.28;70.61;99418.83;1764581;78;23173;-48
2021/12/26 06:14:46;;;;;;;6.77;1.93;;;;;;;-7.27;70.65;99422.33;1775632;78;21150;-48
2021/12/26 06:17:13;;;;;;;6.77;1.80;;;;;;;-7.24;70.82;99427.63;1750973;80;21036;-48
2021/12/26 06:19:57;;;;;;;;;;;;;;;-7.20;70.77;99432.03;1775172;78;21115;-48
2021/12/26 06:22:29;;;;;;;4.13;1.20;;;;;;;-7.17;70.71;99427.29;1763446;78;20271;-48
2021/12/26 06:25:07;;;;;;;8.47;1.33;;;;;;;-7.17;70.69;99429.48;1766929;78;21285;-48
2021/12/26 06:27:40;;;;;;;7.10;2.13;;;;;;;-7.14;70.73;99435.16;1728644;78;21036;-49
2021/12/26 06:30:22;;;;;;;6.00;1.63;;;;;;;-7.11;70.73;99438.73;1770028;78;21130;-49
2021/12/26 06:32:58;;;;;;;9.17;2.43;;;;;;;-7.08;70.68;99442.72;1766270;78;21072;-48
2021/12/26 06:35:26;;;;;;;5.00;1.70;;;;;;;-7.06;70.71;99444.05;1712992;78;21530;-49
2021/12/26 06:38:11;;;;;;;6.70;2.02;;;;;;;-7.06;70.69;99447.52;1770061;78;21119;-48
2021/12/26 06:40:56;;;;;;;7.17;1.85;;;;;;;-7.06;70.59;99444.05;1771985;78;21100;-50
2021/12/26 06:43:27;;;;;;;8.47;2.17;;;;;;;-7.08;70.61;99450.56;1704335;78;21917;-49
2021/12/26 06:46:10;;;;;;;3.97;1.67;;;;;;;-7.08;70.66;99449.25;1720656;81;21072;-50
2021/12/26 06:48:57;;;;;;;9.23;2.03;;;;;;;-7.06;70.66;99450.59;1757139;78;21354;-48
2021/12/26 06:51:23;;;;;;;6.90;2.70;;;;;;;-7.04;70.70;99451.05;1775135;78;21415;-50
2021/12/26 06:53:49;;;;;;;11.13;1.80;;;;;;;-6.98;70.72;99453.80;1767169;78;22394;-48
2021/12/26 06:56:16;;;;;;;11.40;1.97;;;;;;;-6.94;70.72;99456.89;1767324;78;21055;-49
2021/12/26 06:58:42;;;;;;;9.10;1.90;;;;;;;-6.90;70.75;99456.53;1770129;78;21044;-48
2021/12/26 07:01:10;;;;;;;6.17;1.67;;;;;;;-6.84;70.78;99454.43;1770072;78;21103;-48
2021/12/26 07:03:37;;;;;;;8.60;2.07;;;;;;;-6.78;70.71;99451.90;1780716;78;21100;-50
2021/12/26 07:06:04;;;;;;;11.00;2.60;;;;;;;-6.74;70.80;99456.34;1775419;78;20918;-48
2021/12/26 07:08:30;;;;;;;6.27;2.03;;;;;;;-6.66;70.73;99452.98;1774881;78;20994;-49
2021/12/26 07:10:57;;;;;;;8.03;1.83;;;;;;;-6.58;70.72;99455.72;1774085;78;20916;-49
2021/12/26 07:13:23;;;;;;;6.33;1.83;;;;;;;-6.52;70.65;99451.45;1714491;81;21064;-52
2021/12/26 07:15:51;;;;;;;7.43;1.40;;;;;;;-6.49;70.62;99446.69;1709387;81;21065;-49
2021/12/26 07:18:18;;;;;;;10.17;3.50;;;;;;;-6.47;70.56;99452.84;1699699;81;21573;-48
2021/12/26 07:20:46;;;;;;;7.53;2.03;;;;;;;-6.45;70.47;99450.22;1704575;81;21695;-48
2021/12/26 07:23:30;;;;;;;;;;;;;;;-6.42;70.55;99455.52;1709732;81;21567;-49
2021/12/26 07:26:02;;;;;;;7.47;1.90;;;;;;;-6.35;70.53;99449.50;1707088;81;20180;-50
2021/12/26 07:28:28;;;;;;;6.83;1.83;;;;;;;-6.34;70.50;99450.83;1711823;81;21119;-50
2021/12/26 07:31:01;;;;;;;9.77;2.07;;;;;;;-6.27;70.56;99451.36;1710026;81;21475;-51
2021/12/26 07:33:27;;;;;;;8.67;2.50;;;;;;;-6.21;70.51;99450.13;1706056;81;21568;-48
2021/12/26 07:35:57;;;;;;;9.03;2.23;;;;;;;-6.13;70.45;99455.50;1707434;81;21091;-49
2021/12/26 07:38:31;;;;;;;;;;;;;;;-6.06;70.46;99461.27;1728599;80;21148;-48
2021/12/26 07:40:58;;;;;;;8.77;2.00;;;;;;;-6.00;70.35;99460.03;1733051;80;21132;-48
2021/12/26 07:43:26;;;;;;;8.43;2.57;;;;;;;-5.93;70.36;99464.48;1730276;80;21140;-49
2021/12/26 07:46:11;;;;;;;9.63;2.73;;;;;;;-5.88;70.26;99463.25;1733610;80;21120;-50
2021/12/26 07:48:38;;;;;;;6.63;2.13;;;;;;;-5.84;70.12;99471.11;1742136;80;21137;-48
2021/12/26 07:51:05;;;;;;;5.47;1.90;;;;;;;-5.78;70.13;99467.25;1727492;80;21100;-48
2021/12/26 07:53:52;;;;;;;5.77;1.73;;;;;;;-5.75;70.21;99476.47;1636166;86;21168;-49
2021/12/26 07:56:38;;;;;;;5.47;1.23;;;;;;;-5.66;70.19;99482.26;1696991;82;21514;-49
2021/12/26 07:59:06;;;;;;;4.73;2.37;;;;;;;-5.60;70.14;99481.02;1720561;78;20941;-49
2021/12/26 08:01:36;;;;;;;6.83;1.97;;;;;;;-5.53;70.09;99472.81;1733614;78;21163;-49
2021/12/26 08:04:11;;;;;;;10.07;2.13;;;;;;;-5.46;70.08;99474.63;1751896;78;21108;-49
2021/12/26 08:06:39;;;;;;;5.60;1.60;;;;;;;-5.38;70.07;99471.66;1764464;78;21183;-48
2021/12/26 08:09:06;;;;;;;9.73;2.03;;;;;;;-5.28;70.01;99474.83;1769259;78;22293;-49
2021/12/26 08:11:33;;;;;;;7.33;1.97;;;;;;;-5.19;69.92;99476.24;1767596;78;21487;-49
2021/12/26 08:14:00;;;;;;;8.60;2.43;;;;;;;-5.07;69.79;99480.71;1768435;78;21466;-50
2021/12/26 08:16:27;;;;;;;8.87;2.67;;;;;;;-5.00;69.58;99472.91;1777676;78;21530;-51
2021/12/26 08:18:54;;;;;;;5.73;1.87;;;;;;;-4.94;69.58;99460.72;1772857;78;22135;-49
2021/12/26 08:21:21;;;;;;;5.93;2.53;;;;;;;-4.88;69.40;99464.27;1773739;78;21071;-47
2021/12/26 08:23:48;;;;;;;9.27;2.33;;;;;;;-4.80;69.30;99458.65;1781698;78;21467;-49
2021/12/26 08:26:14;;;;;;;9.50;1.83;;;;;;;-4.72;69.17;99460.91;1779805;78;21052;-49
2021/12/26 08:28:40;;;;;;;3.93;1.53;;;;;;;-4.65;69.16;99455.25;1776193;78;21048;-51
2021/12/26 08:31:06;;;;;;;7.67;1.70;;;;;;;-4.55;69.03;99449.20;1771270;78;21625;-50
2021/12/26 08:33:33;;;;;;;5.63;1.37;;;;;;;-4.52;68.89;99452.30;1769746;78;21506;-47
2021/12/26 08:36:00;;;;;;;6.53;1.50;;;;;;;-4.45;68.88;99448.84;1785855;78;21034;-47
2021/12/26 08:38:27;;;;;;;5.60;1.60;;;;;;;-4.38;68.95;99444.06;1776285;78;21542;-49
2021/12/26 08:40:54;;;;;;;4.67;1.40;;;;;;;-4.30;68.83;99439.73;1772528;78;21115;-48
2021/12/26 08:43:20;;;;;;;7.97;1.73;;;;;;;-4.22;68.78;99431.46;1769551;78;21601;-49
2021/12/26 08:45:47;;;;;;;6.87;2.60;;;;;;;-4.12;68.74;99436.34;1766464;78;21112;-49
2021/12/26 08:48:13;;;;;;;11.77;2.83;;;;;;;-4.05;68.57;99436.37;1765992;78;21104;-48
2021/12/26 08:50:41;;;;;;;5.03;1.60;;;;;;;-3.99;68.48;99435.08;1764890;78;21071;-50
2021/12/26 08:53:08;;;;;;;6.47;2.17;;;;;;;-3.92;68.51;99433.38;1772925;78;21084;-47
2021/12/26 08:55:35;;;;;;;6.90;1.40;;;;;;;-3.84;68.41;99427.72;1772085;78;21420;-48
2021/12/26 08:58:01;;;;;;;5.50;1.87;;;;;;;-3.79;68.32;99427.28;1767032;78;21052;-48
2021/12/26 09:00:30;;;;;;;8.00;2.03;;;;;;;-3.74;68.37;99421.59;1772092;78;20918;-49
2021/12/26 09:02:56;;;;;;;5.70;1.90;;;;;;;-3.67;68.26;99422.08;1770381;78;20925;-49
2021/12/26 09:05:23;;;;;;;8.10;1.70;;;;;;;-3.58;68.13;99421.23;1768926;78;21398;-49
2021/12/26 09:07:49;;;;;;;5.87;1.60;;;;;;;-3.51;68.01;99412.04;1768948;78;21643;-49
2021/12/26 09:10:15;;;;;;;5.13;1.10;;;;;;;-3.44;67.83;99414.23;1714133;81;21105;-49
2021/12/26 09:12:43;;;;;;;7.67;1.43;;;;;;;-3.39;67.73;99411.60;1711478;81;21021;-49
2021/12/26 09:15:10;;;;;;;8.73;1.20;;;;;;;-3.32;67.56;99416.03;1708145;81;21056;-49
2021/12/26 09:17:38;;;;;;;8.87;1.50;;;;;;;-3.29;67.39;99412.06;1707236;81;21087;-50
2021/12/26 09:20:06;;;;;;;2.00;0.80;;;;;;;-3.24;67.29;99411.22;1701312;81;22922;-48
2021/12/26 09:22:33;;;;;;;3.73;1.20;;;;;;;-3.17;67.14;99405.52;1701915;83;22015;-48
2021/12/26 09:24:59;;;;;;;3.30;1.20;;;;;;;-3.14;66.93;99412.96;1711914;81;21045;-47
2021/12/26 09:27:26;;;;;;;5.50;1.23;;;;;;;-3.07;66.83;99414.75;1697488;83;21108;-49
2021/12/26 09:29:52;;;;;;;3.40;1.00;;;;;;;-3.03;66.78;99409.47;1729593;80;21101;-50
2021/12/26 09:32:18;;;;;;;3.77;0.90;;;;;;;-2.98;66.63;99409.92;1709294;81;22634;-48
2021/12/26 09:34:45;;;;;;;2.43;1.30;;;;;;;-2.92;66.54;99411.67;1703013;81;21084;-51
2021/12/26 09:37:11;;;;;;;5.53;1.10;;;;;;;-2.89;66.37;99399.36;1703882;81;21081;-49
2021/12/26 09:39:38;;;;;;;4.63;0.93;;;;;;;-2.83;66.38;99407.28;1695802;83;21080;-49
2021/12/26 09:42:06;;;;;;;5.87;0.80;;;;;;;-2.78;66.25;99408.59;1706675;81;21092;-48
2021/12/26 09:44:34;;;;;;;3.93;0.90;;;;;;;-2.72;66.05;99404.63;1706990;81;21074;-49
2021/12/26 09:47:01;;;;;;;5.43;0.80;;;;;;;-2.69;65.79;99398.92;1704532;81;20980;-49
2021/12/26 09:49:27;;;;;;;2.80;0.90;;;;;;;-2.65;65.65;99397.61;1732154;81;20903;-50
2021/12/26 09:51:53;;;;;;;2.57;1.27;;;;;;;-2.65;65.45;99404.20;1729370;81;20982;-48
2021/12/26 09:54:20;;;;;;;3.30;0.90;;;;;;;-2.63;65.35;99399.78;1732259;81;20935;-48
2021/12/26 09:56:46;;;;;;;3.00;0.90;;;;;;;-2.61;65.21;99405.50;1732210;81;22446;-51
2021/12/26 09:59:19;;;;;;;3.90;1.10;;;;;;;-2.58;65.17;99398.92;1735150;81;20946;-49
2021/12/26 10:01:50;;;;;;;6.43;1.60;;;;;;;-2.53;65.05;99394.95;1732571;81;20978;-48
2021/12/26 10:04:26;;;;;;;11.53;1.20;;;;;;;-2.49;64.97;99391.00;1731459;81;20887;-48
2021/12/26 10:07:09;;;;;;;2.47;0.80;;;;;;;-2.42;64.78;99393.17;1731651;81;20994;-48
2021/12/26 10:09:39;;;;;;;4.87;0.93;;;;;;;-2.36;64.64;99387.45;1730403;81;21802;-48
2021/12/26 10:12:09;;;;;;;3.93;0.70;;;;;;;-2.31;64.39;99386.13;1734286;81;20931;-49
2021/12/26 10:14:41;;;;;;;3.70;0.80;;;;;;;-2.27;64.16;99389.18;1732743;81;20972;-49
2021/12/26 10:17:13;;;;;;;4.03;0.93;;;;;;;-2.29;64.01;99382.59;1730935;81;20965;-51
2021/12/26 10:19:44;;;;;;;1.93;0.67;;;;;;;-2.29;63.89;99391.81;1731767;81;21013;-48
2021/12/26 10:22:13;;;;;;;2.20;0.70;;;;;;;-2.31;63.56;99390.97;1688473;82;21574;-49
2021/12/26 10:24:42;;;;;;;3.63;0.70;;;;;;;-2.31;63.71;99389.65;1712357;81;21021;-47
2021/12/26 10:27:15;;;;;;;3.20;0.70;;;;;;;-2.29;63.71;99391.81;1716805;81;21875;-49
2021/12/26 10:29:47;;;;;;;5.03;0.77;;;;;;;-2.26;63.64;99390.06;1707458;81;21109;-50
2021/12/26 10:32:20;;;;;;;3.90;1.53;;;;;;;-2.23;63.81;99392.70;1703130;81;21358;-48
2021/12/26 10:35:07;;;;;;;4.17;0.77;;;;;;;-2.17;63.76;99396.19;1708426;81;20925;-49
2021/12/26 10:37:46;;;;;;;1.60;0.83;;;;;;;-2.13;63.51;99398.39;1702326;81;21052;-47
2021/12/26 10:40:25;;;;;;;3.07;0.73;;;;;;;-2.13;63.11;99398.39;1730349;81;21426;-49
2021/12/26 10:42:56;;;;;;;2.00;0.50;;;;;;;-2.17;63.14;99393.99;1725603;81;21482;-50
2021/12/26 10:45:28;;;;;;;1.10;0.57;;;;;;;-2.20;63.14;99390.03;1729259;81;21112;-49
2021/12/26 10:48:01;;;;;;;1.47;0.60;;;;;;;-2.22;63.05;99391.38;1734340;80;21579;-48
2021/12/26 10:50:29;;;;;;;1.70;0.70;;;;;;;-2.22;62.94;99398.41;1705211;81;21152;-50
2021/12/26 10:53:05;;;;;;;1.43;0.80;;;;;;;-2.23;63.05;99388.74;1707468;81;21921;-49
2021/12/26 10:55:41;;;;;;;2.13;0.70;;;;;;;-2.22;63.04;99396.66;1702135;81;21595;-49
2021/12/26 10:58:10;;;;;;;1.20;0.60;;;;;;;-2.19;63.03;99391.79;1729377;81;21378;-50
2021/12/26 11:00:43;;;;;;;3.63;0.87;;;;;;;-2.16;63.11;99385.20;1729019;81;21606;-50
2021/12/26 11:03:13;;;;;;;2.13;0.63;;;;;;;-2.11;63.01;99388.69;1727334;81;21504;-50
2021/12/26 11:05:44;;;;;;;1.67;0.70;;;;;;;-2.08;63.05;99392.64;1730475;81;20954;-50
2021/12/26 11:08:13;;;;;;;3.97;0.50;;;;;;;-2.05;62.94;99395.28;1731820;81;20894;-49
2021/12/26 11:10:46;;;;;;;1.40;0.60;;;;;;;-2.01;62.76;99386.02;1729247;81;21077;-49
2021/12/26 11:13:27;;;;;;;2.17;0.57;;;;;;;-2.00;62.50;99381.63;1730163;81;21214;-50
2021/12/26 11:17:30;;;;;;;2.10;0.80;;;;;;;-1.95;62.31;99391.70;1867862;75;26685;-49
2021/12/26 11:19:58;;;;;;;2.03;0.63;;;;;;;-1.99;62.34;99395.25;1834591;75;21199;-49
2021/12/26 11:22:24;;;;;;;4.30;0.57;;;;;;;-1.97;62.24;99393.49;1839662;76;21673;-50
2021/12/26 11:24:53;;;;;;;2.03;0.60;;;;;;;-1.94;62.08;99395.66;1841229;76;21710;-51
2021/12/26 11:27:21;;;;;;;1.93;0.60;;;;;;;-1.92;61.90;99397.86;1843213;76;20886;-50
2021/12/26 11:29:48;;;;;;;2.57;0.67;;;;;;;-1.89;61.89;99396.09;1846666;76;21486;-50
2021/12/26 11:32:19;;;;;;;2.03;0.63;;;;;;;-1.87;61.92;99396.50;1845591;76;20878;-52
2021/12/26 11:34:46;;;;;;;2.77;0.90;;;;;;;-1.84;61.95;99390.34;1841813;76;21576;-49
2021/12/26 11:37:13;;;;;;;1.73;0.60;;;;;;;-1.79;61.83;99397.38;1840413;76;20968;-52
2021/12/26 11:39:44;;;;;;;2.50;0.60;;;;;;;-1.76;61.72;99394.70;1775397;76;20921;-50
2021/12/26 11:43:09;;;;;;;2.63;0.60;;;;;;;-1.74;61.41;99392.06;1837432;76;21164;-51
2021/12/26 11:46:32;;;;;;;2.43;1.23;;;;;;;-1.73;61.08;99393.82;1838718;76;21067;-49
2021/12/26 11:50:05;;;;;;;1.70;0.57;;;;;;;-1.76;60.60;99381.95;1841780;75;23233;-50
2021/12/26 11:53:14;;;;;;;2.00;0.60;;;;;;;-1.78;60.60;99383.71;1841882;76;21590;-51